createdAt,value
2022-12-13T00:01:32.819Z,-1.90
2022-12-13T00:04:02.678Z,-1.90
2022-12-13T00:06:31.004Z,-1.80
2022-12-13T00:08:58.696Z,-1.70
2022-12-13T00:11:26.544Z,-1.80
2022-12-13T00:13:54.208Z,-1.70
2022-12-13T00:16:23.293Z,-1.80
2022-12-13T00:18:55.733Z,-1.80
2022-12-13T00:21:25.605Z,-1.50
2022-12-13T00:23:53.025Z,-1.80
2022-12-13T00:26:22.388Z,-1.80
2022-12-13T00:28:51.435Z,-1.80
2022-12-13T00:31:53.271Z,-1.30
2022-12-13T00:34:07.795Z,-1.90
2022-12-13T00:36:34.979Z,-1.40
2022-12-13T00:39:02.227Z,-1.80
2022-12-13T00:41:32.397Z,-1.70
2022-12-13T00:44:00.513Z,-1.80
2022-12-13T00:46:31.077Z,-1.70
2022-12-13T00:49:01.114Z,-1.70
2022-12-13T00:51:29.981Z,-1.70
2022-12-13T00:53:57.960Z,-1.80
2022-12-13T00:56:27.340Z,-1.40
2022-12-13T00:58:55.379Z,-1.80
2022-12-13T01:01:25.396Z,-1.90
2022-12-13T01:03:58.494Z,-1.90
2022-12-13T01:06:50.114Z,-1.80
2022-12-13T01:09:27.567Z,-1.90
2022-12-13T01:12:05.510Z,-1.90
2022-12-13T01:14:35.676Z,-1.40
2022-12-13T01:17:04.543Z,-1.90
2022-12-13T01:19:32.868Z,-1.90
2022-12-13T01:22:05.187Z,-1.90
2022-12-13T01:24:32.816Z,-1.80
2022-12-13T01:27:00.422Z,-1.90
2022-12-13T01:29:28.271Z,-1.80
2022-12-13T01:31:55.690Z,-1.90
2022-12-13T01:34:26.806Z,-1.90
2022-12-13T01:36:58.360Z,-1.90
2022-12-13T01:39:27.158Z,-1.80
2022-12-13T01:42:03.628Z,-1.40
2022-12-13T01:45:01.153Z,-1.90
2022-12-13T01:47:41.152Z,-2.00
2022-12-13T01:50:20.868Z,-2.00
2022-12-13T01:52:49.286Z,-1.50
2022-12-13T01:55:22.387Z,-2.00
2022-12-13T01:57:51.928Z,-2.00
2022-12-13T02:00:19.278Z,-2.10
2022-12-13T02:02:48.373Z,-1.80
2022-12-13T02:05:36.416Z,-1.10
2022-12-13T02:08:05.181Z,-2.00
2022-12-13T02:10:32.913Z,-2.10
2022-12-13T02:13:00.028Z,-2.10
2022-12-13T02:15:43.172Z,-2.00
2022-12-13T02:18:18.586Z,-2.10
2022-12-13T02:21:01.744Z,-1.30
2022-12-13T02:24:09.047Z,-2.10
2022-12-13T02:26:56.896Z,-2.00
2022-12-13T02:29:58.131Z,-2.00
2022-12-13T02:32:28.166Z,-2.00
2022-12-13T02:35:02.643Z,-2.10
2022-12-13T02:37:33.555Z,-2.10
2022-12-13T02:40:24.130Z,-2.10
2022-12-13T02:43:24.643Z,-2.10
2022-12-13T02:46:03.163Z,-2.10
2022-12-13T02:48:34.262Z,-2.10
2022-12-13T02:51:05.544Z,-1.90
2022-12-13T02:53:34.025Z,-2.20
2022-12-13T02:56:01.244Z,-2.20
2022-12-13T02:58:36.683Z,-2.40
2022-12-13T03:01:29.827Z,-2.30
2022-12-13T03:04:22.188Z,-2.30
2022-12-13T03:06:54.868Z,-2.40
2022-12-13T03:09:25.527Z,-2.40
2022-12-13T03:12:17.088Z,-2.50
2022-12-13T03:14:56.510Z,-2.50
2022-12-13T03:17:26.035Z,-2.40
2022-12-13T03:19:54.762Z,-2.50
2022-12-13T03:22:23.338Z,-2.30
2022-12-13T03:24:52.297Z,-2.60
2022-12-13T03:27:19.505Z,-2.60
2022-12-13T03:29:46.610Z,-2.70
2022-12-13T03:32:13.668Z,-2.80
2022-12-13T03:34:44.061Z,-2.70
2022-12-13T03:37:12.995Z,-2.80
2022-12-13T03:39:40.136Z,-2.80
2022-12-13T03:42:07.265Z,-1.90
2022-12-13T03:44:34.716Z,-2.90
2022-12-13T03:47:01.822Z,-2.80
2022-12-13T03:49:35.598Z,-2.90
2022-12-13T03:52:03.180Z,-2.90
2022-12-13T03:54:30.255Z,-2.10
2022-12-13T03:56:58.169Z,-1.90
2022-12-13T03:59:25.256Z,-3.00
2022-12-13T04:01:52.524Z,-2.90
2022-12-13T04:04:19.720Z,-3.00
2022-12-13T04:06:46.866Z,-3.10
2022-12-13T04:09:14.039Z,-3.20
2022-12-13T04:11:59.311Z,-3.10
2022-12-13T04:14:26.596Z,-3.10
2022-12-13T04:16:53.789Z,-3.20
2022-12-13T04:19:23.239Z,-3.10
2022-12-13T04:21:51.970Z,-3.10
2022-12-13T04:24:19.193Z,-3.00
2022-12-13T04:26:46.467Z,-2.90
2022-12-13T04:29:13.732Z,-2.40
2022-12-13T04:31:40.902Z,-2.50
2022-12-13T04:34:08.335Z,-2.80
2022-12-13T04:36:35.444Z,-2.80
2022-12-13T04:39:21.948Z,-2.70
2022-12-13T04:41:51.941Z,-2.70
2022-12-13T04:44:28.809Z,-2.50
2022-12-13T04:47:01.327Z,-2.60
2022-12-13T04:49:30.302Z,-2.60
2022-12-13T04:52:01.130Z,-2.00
2022-12-13T04:54:36.268Z,-2.60
2022-12-13T04:57:06.750Z,-1.60
2022-12-13T04:59:34.023Z,-2.60
2022-12-13T05:02:01.281Z,-2.60
2022-12-13T05:04:32.729Z,-2.50
2022-12-13T05:07:01.159Z,-2.50
2022-12-13T05:09:28.267Z,-2.50
2022-12-13T05:12:01.817Z,-2.50
2022-12-13T05:14:31.689Z,-2.50
2022-12-13T05:17:00.305Z,-2.30
2022-12-13T05:19:31.362Z,-2.50
2022-12-13T05:22:01.915Z,-2.50
2022-12-13T05:24:33.186Z,-2.20
2022-12-13T05:27:00.533Z,-2.40
2022-12-13T05:29:28.094Z,-1.40
2022-12-13T05:31:55.351Z,-2.40
2022-12-13T05:34:22.692Z,-2.10
2022-12-13T05:36:49.744Z,-2.00
2022-12-13T05:39:29.246Z,-1.60
2022-12-13T05:42:01.745Z,-2.30
2022-12-13T05:44:31.197Z,-2.40
2022-12-13T05:46:58.488Z,-2.40
2022-12-13T05:49:29.271Z,-1.60
2022-12-13T05:51:56.401Z,-2.30
2022-12-13T05:54:23.530Z,-2.40
2022-12-13T05:56:50.684Z,-2.40
2022-12-13T05:59:17.906Z,-2.20
2022-12-13T06:01:45.036Z,-2.40
2022-12-13T06:04:22.955Z,-2.40
2022-12-13T06:06:51.401Z,-1.60
2022-12-13T06:09:19.565Z,-2.40
2022-12-13T06:11:46.826Z,-1.90
2022-12-13T06:14:21.796Z,-1.00
2022-12-13T06:16:51.117Z,-1.00
2022-12-13T06:19:18.469Z,-2.30
2022-12-13T06:21:46.529Z,-1.40
2022-12-13T06:24:16.686Z,-2.30
2022-12-13T06:26:45.157Z,-1.70
2022-12-13T06:29:23.986Z,-2.30
2022-12-13T06:32:01.905Z,-2.20
2022-12-13T06:34:36.174Z,-2.20
2022-12-13T06:37:05.935Z,-2.30
2022-12-13T06:39:34.065Z,-2.20
2022-12-13T06:42:03.427Z,-1.20
2022-12-13T06:44:30.594Z,-2.20
2022-12-13T06:47:11.352Z,-2.20
2022-12-13T06:49:42.603Z,-2.30
2022-12-13T06:52:14.846Z,-2.30
2022-12-13T06:54:43.188Z,-2.30
2022-12-13T06:57:12.290Z,-1.10
2022-12-13T06:59:39.854Z,-1.70
2022-12-13T07:02:24.761Z,-2.30
2022-12-13T07:04:54.148Z,-1.50
2022-12-13T07:07:21.366Z,-2.30
2022-12-13T07:09:48.500Z,-2.30
2022-12-13T07:12:15.588Z,-1.80
2022-12-13T07:14:42.835Z,-2.40
2022-12-13T07:17:11.017Z,-2.40
2022-12-13T07:19:38.302Z,-2.40
2022-12-13T07:22:06.170Z,-1.80
2022-12-13T07:24:35.181Z,-1.20
2022-12-13T07:27:03.670Z,-1.50
2022-12-13T07:29:30.856Z,-1.20
2022-12-13T07:32:01.043Z,-1.70
2022-12-13T07:34:30.426Z,-1.20
2022-12-13T07:36:57.846Z,-1.90
2022-12-13T07:39:28.663Z,-1.70
2022-12-13T07:41:56.572Z,-2.30
2022-12-13T07:44:24.919Z,-2.40
2022-12-13T07:46:52.327Z,-2.40
2022-12-13T07:49:20.216Z,-2.10
2022-12-13T07:51:47.817Z,-1.90
2022-12-13T07:54:15.076Z,-1.90
2022-12-13T07:56:42.207Z,-2.20
2022-12-13T07:59:11.179Z,-1.60
2022-12-13T08:01:38.443Z,-2.20
2022-12-13T08:04:06.244Z,-2.20
2022-12-13T08:06:39.649Z,-2.30
2022-12-13T08:09:07.006Z,-2.30
2022-12-13T08:11:34.716Z,-2.20
2022-12-13T08:14:01.827Z,-2.30
2022-12-13T08:16:30.195Z,-1.70
2022-12-13T08:19:02.824Z,-2.30
2022-12-13T08:24:26.474Z,-2.30
2022-12-13T08:27:01.596Z,-2.30
2022-12-13T08:29:36.001Z,-2.20
2022-12-13T08:32:09.795Z,-2.30
2022-12-13T08:34:37.527Z,-2.40
2022-12-13T08:37:05.083Z,-2.40
2022-12-13T08:39:37.325Z,-1.30
2022-12-13T08:42:19.445Z,-2.40
2022-12-13T08:44:49.108Z,-2.40
2022-12-13T08:47:24.858Z,-2.30
2022-12-13T08:49:54.767Z,-1.30
2022-12-13T08:52:23.308Z,-2.10
2022-12-13T08:54:50.582Z,-1.70
2022-12-13T08:57:17.887Z,-1.70
2022-12-13T08:59:45.498Z,-2.20
2022-12-13T09:02:14.706Z,-2.20
2022-12-13T09:04:42.207Z,-2.00
2022-12-13T09:07:09.617Z,-1.60
2022-12-13T09:09:37.192Z,-2.10
2022-12-13T09:12:10.157Z,-2.00
2022-12-13T09:14:45.672Z,-2.10
2022-12-13T09:17:24.526Z,-2.10
2022-12-13T09:19:58.242Z,-2.10
2022-12-13T09:22:32.997Z,-2.00
2022-12-13T09:25:02.731Z,-2.10
2022-12-13T09:27:30.857Z,-2.10
2022-12-13T09:30:08.300Z,-1.90
2022-12-13T09:32:35.493Z,-2.20
2022-12-13T09:35:02.646Z,-2.20
2022-12-13T09:37:30.510Z,-2.20
2022-12-13T09:39:57.747Z,-1.80
2022-12-13T09:42:30.320Z,-1.40
2022-12-13T09:45:22.492Z,-1.90
2022-12-13T09:48:01.286Z,-1.90
2022-12-13T09:50:38.743Z,-1.00
2022-12-13T09:53:12.168Z,-1.80
2022-12-13T09:55:51.829Z,-1.80
2022-12-13T09:58:26.346Z,-1.70
2022-12-13T10:00:56.305Z,-1.70
2022-12-13T10:03:25.774Z,-1.90
2022-12-13T10:06:14.349Z,-1.90
2022-12-13T10:08:57.868Z,-1.90
2022-12-13T10:11:31.608Z,-1.90
2022-12-13T10:14:05.599Z,-1.90
2022-12-13T10:16:37.024Z,-2.00
2022-12-13T10:19:33.308Z,-1.90
2022-12-13T10:22:02.891Z,-1.90
2022-12-13T10:24:50.118Z,-1.50
2022-12-13T10:27:29.630Z,-1.70
2022-12-13T10:30:13.443Z,-1.70
2022-12-13T10:32:59.203Z,-1.80
2022-12-13T10:35:32.742Z,-1.80
2022-12-13T10:38:02.890Z,-1.80
2022-12-13T10:40:34.938Z,-1.80
2022-12-13T10:43:18.743Z,-1.80
2022-12-13T10:45:58.255Z,-1.80
2022-12-13T10:48:39.433Z,-1.50
2022-12-13T10:51:07.925Z,-0.80
2022-12-13T10:53:57.495Z,-1.30
2022-12-13T10:57:00.327Z,-1.50
2022-12-13T10:59:38.798Z,-1.40
2022-12-13T11:02:38.217Z,-1.30
2022-12-13T11:05:26.440Z,-1.30
2022-12-13T11:07:55.573Z,-1.20
2022-12-13T11:10:29.021Z,-0.50
2022-12-13T11:13:04.508Z,-1.50
2022-12-13T11:15:35.381Z,-1.70
2022-12-13T11:18:05.960Z,-1.40
2022-12-13T11:21:07.977Z,-1.50
2022-12-13T11:23:43.457Z,-1.60
2022-12-13T11:26:24.190Z,-1.60
2022-12-13T11:29:05.369Z,-1.50
2022-12-13T11:31:45.015Z,-1.30
2022-12-13T11:34:33.515Z,-1.10
2022-12-13T11:37:26.823Z,-1.20
2022-12-13T11:40:02.714Z,-1.20
2022-12-13T11:42:43.303Z,-1.30
2022-12-13T11:45:24.786Z,-1.30
2022-12-13T11:48:03.903Z,-1.20
2022-12-13T11:50:43.009Z,-1.10
2022-12-13T11:53:25.289Z,0.00
2022-12-13T11:56:13.579Z,-1.30
2022-12-13T11:59:05.705Z,-1.30
2022-12-13T12:01:47.551Z,-1.30
2022-12-13T12:04:49.053Z,-1.30
2022-12-13T12:07:35.431Z,-1.40
2022-12-13T12:10:30.805Z,-1.40
2022-12-13T12:13:13.827Z,-1.50
2022-12-13T12:15:47.116Z,-1.50
2022-12-13T12:18:16.630Z,-1.50
2022-12-13T12:21:09.073Z,-1.50
2022-12-13T12:24:02.624Z,-1.50
2022-12-13T12:27:06.305Z,-1.40
2022-12-13T12:29:39.275Z,-1.40
2022-12-13T12:32:28.720Z,-1.50
2022-12-13T12:35:14.052Z,-1.60
2022-12-13T12:37:52.028Z,-1.60
2022-12-13T12:41:07.288Z,-1.70
2022-12-13T12:43:37.442Z,-1.70
2022-12-13T12:46:13.458Z,-1.70
2022-12-13T12:49:01.372Z,-1.70
2022-12-13T12:51:41.283Z,-1.20
2022-12-13T12:54:33.895Z,-1.80
2022-12-13T12:57:22.626Z,-1.40
2022-12-13T13:00:12.070Z,-1.70
2022-12-13T13:03:01.747Z,-1.80
2022-12-13T13:05:36.457Z,-1.80
2022-12-13T13:08:13.991Z,-0.60
2022-12-13T13:10:49.628Z,-1.70
2022-12-13T13:13:49.907Z,-1.80
2022-12-13T13:16:38.547Z,-1.70
2022-12-13T13:19:12.325Z,-1.70
2022-12-13T13:21:53.314Z,-1.80
2022-12-13T13:24:21.912Z,-1.80
2022-12-13T13:26:54.729Z,-1.80
2022-12-13T13:29:27.785Z,-1.70
2022-12-13T13:32:01.892Z,-1.80
2022-12-13T13:34:44.156Z,-1.80
2022-12-13T13:37:45.336Z,-1.60
2022-12-13T13:40:30.310Z,-1.90
2022-12-13T13:43:01.346Z,-1.90
2022-12-13T13:45:28.862Z,-1.90
2022-12-13T13:48:37.303Z,-1.90
2022-12-13T13:51:33.972Z,-1.90
2022-12-13T13:54:28.288Z,-2.00
2022-12-13T13:57:04.469Z,-1.90
2022-12-13T13:59:53.376Z,-1.70
2022-12-13T14:02:39.364Z,-2.00
2022-12-13T14:05:38.478Z,-2.00
2022-12-13T14:08:08.639Z,-2.00
2022-12-13T14:11:11.036Z,-2.00
2022-12-13T14:13:59.155Z,-2.10
2022-12-13T14:16:56.997Z,-2.10
2022-12-13T14:19:39.213Z,-2.10
2022-12-13T14:22:31.318Z,-2.10
2022-12-13T14:25:25.687Z,-2.10
2022-12-13T14:28:25.265Z,-2.20
2022-12-13T14:30:57.117Z,-2.20
2022-12-13T14:33:26.726Z,-2.20
2022-12-13T14:35:58.772Z,-1.30
2022-12-13T14:38:28.248Z,-1.20
2022-12-13T14:41:03.647Z,-2.10
2022-12-13T14:43:33.622Z,-1.00
2022-12-13T14:46:04.049Z,-2.20
2022-12-13T14:48:37.572Z,-1.50
2022-12-13T14:51:04.974Z,-2.40
2022-12-13T14:53:41.323Z,-2.40
2022-12-13T14:56:28.863Z,-1.50
2022-12-13T14:59:01.501Z,-2.50
2022-12-13T15:01:37.299Z,-2.30
2022-12-13T15:04:26.836Z,-2.50
2022-12-13T15:07:07.764Z,-2.70
2022-12-13T15:09:40.435Z,-2.70
2022-12-13T15:12:24.729Z,-2.80
2022-12-13T15:15:05.493Z,-1.80
2022-12-13T15:17:38.947Z,-2.90
2022-12-13T15:20:30.686Z,-2.90
2022-12-13T15:23:12.067Z,-2.90
2022-12-13T15:25:43.055Z,-2.60
2022-12-13T15:28:22.066Z,-1.90
2022-12-13T15:30:50.253Z,-3.00
2022-12-13T15:33:22.897Z,-2.80
2022-12-13T15:36:14.975Z,-3.10
2022-12-13T15:39:01.180Z,-3.10
2022-12-13T15:41:37.219Z,-2.50
2022-12-13T15:44:19.704Z,-3.20
2022-12-13T15:46:51.769Z,-3.20
2022-12-13T15:49:36.293Z,-2.70
2022-12-13T15:52:14.834Z,-3.20
2022-12-13T15:54:53.901Z,-3.30
2022-12-13T15:57:28.954Z,-2.50
2022-12-13T16:00:29.231Z,-2.80
2022-12-13T16:03:15.099Z,-3.50
2022-12-13T16:05:50.183Z,-1.50
2022-12-13T16:08:32.974Z,-3.00
2022-12-13T16:11:00.337Z,-3.00
2022-12-13T16:13:33.462Z,-1.60
2022-12-13T16:16:26.490Z,-2.40
2022-12-13T16:18:59.807Z,-3.70
2022-12-13T16:21:28.184Z,-2.80
2022-12-13T16:23:55.307Z,-2.80
2022-12-13T16:26:28.715Z,-2.90
2022-12-13T16:29:00.390Z,-3.10
2022-12-13T16:31:35.610Z,-4.00
2022-12-13T16:34:04.105Z,-3.10
2022-12-13T16:36:31.566Z,-4.00
2022-12-13T16:38:59.305Z,-3.80
2022-12-13T16:41:26.781Z,-3.20
2022-12-13T16:43:54.414Z,-3.40
2022-12-13T16:47:12.653Z,-4.00
2022-12-13T16:49:28.025Z,-3.10
2022-12-13T16:51:55.951Z,-3.90
2022-12-13T16:54:24.855Z,-3.80
2022-12-13T16:56:53.004Z,-3.80
2022-12-13T16:59:23.437Z,-3.80
2022-12-13T17:01:51.547Z,-3.90
2022-12-13T17:04:24.017Z,-3.90
2022-12-13T17:06:54.792Z,-3.90
2022-12-13T17:09:24.129Z,-3.80
2022-12-13T17:11:51.565Z,-2.50
2022-12-13T17:14:20.153Z,-3.80
2022-12-13T17:16:50.703Z,-3.90
2022-12-13T17:19:17.866Z,-2.40
2022-12-13T17:21:45.143Z,-3.50
2022-12-13T17:24:12.795Z,-2.90
2022-12-13T17:26:40.379Z,-2.50
2022-12-13T17:29:10.841Z,-3.60
2022-12-13T17:31:40.253Z,-3.50
2022-12-13T17:34:07.363Z,-3.70
2022-12-13T17:36:34.436Z,-3.80
2022-12-13T17:39:02.068Z,-3.80
2022-12-13T17:41:29.231Z,-3.30
2022-12-13T17:43:59.943Z,-3.80
2022-12-13T17:46:27.089Z,-3.80
2022-12-13T17:48:54.244Z,-2.70
2022-12-13T17:51:21.398Z,-2.70
2022-12-13T17:53:48.486Z,-2.10
2022-12-13T17:56:16.255Z,-2.70
2022-12-13T17:58:43.848Z,-3.70
2022-12-13T18:01:15.266Z,-2.60
2022-12-13T18:03:42.637Z,-3.10
2022-12-13T18:06:10.141Z,-3.20
2022-12-13T18:08:40.559Z,-2.10
2022-12-13T18:11:31.690Z,-2.50
2022-12-13T18:13:56.268Z,-2.20
2022-12-13T18:16:28.906Z,-3.50
2022-12-13T18:19:01.796Z,-2.50
2022-12-13T18:21:28.921Z,-3.10
2022-12-13T18:23:56.328Z,-3.90
2022-12-13T18:26:24.866Z,-2.90
2022-12-13T18:28:52.362Z,-2.80
2022-12-13T18:31:22.500Z,-2.50
2022-12-13T18:33:51.227Z,-2.30
2022-12-13T18:36:19.639Z,-2.70
2022-12-13T18:38:46.891Z,-3.80
2022-12-13T18:41:17.519Z,-3.70
2022-12-13T18:43:45.904Z,-3.80
2022-12-13T18:46:14.203Z,-3.70
2022-12-13T18:48:41.541Z,-3.00
2022-12-13T18:51:10.631Z,-3.30
2022-12-13T18:53:39.149Z,-3.80
2022-12-13T18:56:18.727Z,-3.10
2022-12-13T18:58:48.493Z,-3.70
2022-12-13T19:01:16.615Z,-3.10
2022-12-13T19:03:45.965Z,-3.70
2022-12-13T19:06:22.466Z,-2.30
2022-12-13T19:08:51.656Z,-3.70
2022-12-13T19:11:19.338Z,-2.90
2022-12-13T19:13:47.090Z,-1.90
2022-12-13T19:16:17.300Z,-2.50
2022-12-13T19:18:44.705Z,-2.50
2022-12-13T19:21:15.823Z,-3.60
2022-12-13T19:23:43.460Z,-2.70
2022-12-13T19:26:13.448Z,-2.10
2022-12-13T19:28:41.838Z,-2.80
2022-12-13T19:31:14.007Z,-3.30
2022-12-13T19:33:42.061Z,-3.00
2022-12-13T19:36:10.839Z,-3.60
2022-12-13T19:38:38.739Z,-4.00
2022-12-13T19:41:10.861Z,-4.00
2022-12-13T19:43:38.217Z,-2.20
2022-12-13T19:46:07.441Z,-4.10
2022-12-13T19:48:37.737Z,-2.20
2022-12-13T19:51:09.870Z,-3.00
2022-12-13T19:53:38.578Z,-3.20
2022-12-13T19:56:15.285Z,-2.90
2022-12-13T19:58:42.398Z,-3.10
2022-12-13T20:01:10.293Z,-2.50
2022-12-13T20:03:40.048Z,-4.10
2022-12-13T20:06:10.513Z,-2.80
2022-12-13T20:08:38.010Z,-4.50
2022-12-13T20:11:08.301Z,-4.50
2022-12-13T20:13:36.389Z,-3.50
2022-12-13T20:16:05.201Z,-4.60
2022-12-13T20:18:33.547Z,-4.50
2022-12-13T20:21:12.076Z,-4.60
2022-12-13T20:23:40.851Z,-3.10
2022-12-13T20:26:12.671Z,-3.40
2022-12-13T20:28:40.362Z,-3.40
2022-12-13T20:31:16.861Z,-4.70
2022-12-13T20:33:44.514Z,-3.80
2022-12-13T20:36:25.136Z,-4.70
2022-12-13T20:38:56.006Z,-4.70
2022-12-13T20:41:25.564Z,-3.30
2022-12-13T20:43:54.397Z,-3.20
2022-12-13T20:46:22.275Z,-4.90
2022-12-13T20:48:50.689Z,-3.50
2022-12-13T20:51:20.807Z,-3.00
2022-12-13T20:53:50.275Z,-4.40
2022-12-13T20:56:20.058Z,-4.20
2022-12-13T20:58:47.680Z,-4.90
2022-12-13T21:01:28.640Z,-4.40
2022-12-13T21:03:58.643Z,-4.90
2022-12-13T21:06:26.380Z,-3.80
2022-12-13T21:09:00.017Z,-5.00
2022-12-13T21:11:30.398Z,-3.40
2022-12-13T21:14:18.825Z,-3.80
2022-12-13T21:16:52.608Z,-5.10
2022-12-13T21:19:25.436Z,-3.80
2022-12-13T21:21:54.213Z,-5.20
2022-12-13T21:24:23.119Z,-3.70
2022-12-13T21:26:51.376Z,-5.30
2022-12-13T21:29:19.272Z,-3.40
2022-12-13T21:31:49.869Z,-4.50
2022-12-13T21:34:18.067Z,-3.30
2022-12-13T21:36:47.713Z,-3.40
2022-12-13T21:39:24.323Z,-4.50
2022-12-13T21:41:52.321Z,-5.00
2022-12-13T21:44:19.708Z,-5.50
2022-12-13T21:47:10.764Z,-5.50
2022-12-13T21:49:35.113Z,-4.70
2022-12-13T21:52:02.203Z,-5.10
2022-12-13T21:54:29.385Z,-5.70
2022-12-13T21:57:14.953Z,-5.80
2022-12-13T21:59:43.383Z,-5.70
2022-12-13T22:02:19.532Z,-4.50
2022-12-13T22:04:50.776Z,-5.80
2022-12-13T22:07:23.819Z,-5.90
2022-12-13T22:09:52.646Z,-5.90
2022-12-13T22:12:46.382Z,-5.20
2022-12-13T22:15:15.550Z,-5.90
2022-12-13T22:17:43.378Z,-3.50
2022-12-13T22:20:15.614Z,-4.40
2022-12-13T22:22:44.397Z,-6.00
2022-12-13T22:25:11.948Z,-4.60
2022-12-13T22:27:39.189Z,-6.00
2022-12-13T22:30:07.133Z,-6.10
2022-12-13T22:32:34.389Z,-6.10
2022-12-13T22:35:01.711Z,-4.80
2022-12-13T22:37:28.864Z,-6.20
2022-12-13T22:39:56.005Z,-6.00
2022-12-13T22:42:23.162Z,-5.60
2022-12-13T22:44:51.089Z,-6.50
2022-12-13T22:47:18.949Z,-6.40
2022-12-13T22:49:48.792Z,-4.60
2022-12-13T22:52:16.910Z,-4.70
2022-12-13T22:54:44.019Z,-6.50
2022-12-13T22:57:11.157Z,-6.50
2022-12-13T22:59:38.292Z,-6.50
2022-12-13T23:02:05.585Z,-4.80
2022-12-13T23:04:33.069Z,-6.50
2022-12-13T23:07:00.506Z,-5.00
2022-12-13T23:09:27.595Z,-4.30
2022-12-13T23:12:13.555Z,-6.70
2022-12-13T23:14:41.150Z,-6.20
2022-12-13T23:17:08.306Z,-5.20
2022-12-13T23:19:48.961Z,-6.70
2022-12-13T23:22:19.510Z,-6.30
2022-12-13T23:24:46.625Z,-6.80
2022-12-13T23:27:13.743Z,-6.70
2022-12-13T23:29:40.900Z,-6.80
2022-12-13T23:32:07.960Z,-6.80
2022-12-13T23:34:35.251Z,-6.60
2022-12-13T23:37:02.385Z,-6.90
2022-12-13T23:39:29.499Z,-6.80
2022-12-13T23:41:56.651Z,-6.60
2022-12-13T23:44:23.800Z,-5.00
2022-12-13T23:46:50.943Z,-7.00
2022-12-13T23:49:19.734Z,-6.40
2022-12-13T23:51:46.879Z,-6.90
2022-12-13T23:54:16.632Z,-6.90
2022-12-13T23:56:43.975Z,-6.40
2022-12-13T23:59:11.683Z,-5.60
